KSIK/SIK METAR and TAF weather

Enter ICAO airport designator
Station Type Date Time Source
KSIK METAR 2019/10/23 21:15 UTC NOAA

KSIK 232115Z AUTO 18009G17KT 10SM CLR 21/06 A3008 RMK AO2


Station Type Date Time Source
KSIK Decoded METAR 2019/10/23 21:15 UTC NOAA

Station name not available
Oct 23, 2019 - 05:15 PM EDT / 2019.10.23 2115 UTC
Wind: from the S (180 degrees) at 10 MPH (9 KT) gusting to 20 MPH (17 KT):0
Visibility: 10 mile(s):0
Sky conditions: clear
Temperature: 69 F (21 C)
Dew Point: 42 F (6 C)
Relative Humidity: 37%
Pressure (altimeter): 30.08 in. Hg (1018 hPa)
ob: KSIK 232115Z AUTO 18009G17KT 10SM CLR 21/06 A3008 RMK AO2
cycle: 21

Station Type Date Time Source
KSIK TAF UTC NOAA

Error!

Example: see airport list